Terminal Aerodrome Forecast
Issued by NWS Cleveland, OH

Home | Current Version | Previous Version | Text Only | Print | Product List | Glossary Off
Versions: 1 2 3 4 5 6 7 8 9 10 11 12 13 14

000
FTUS41 KCLE 262328
TAFTOL
TAF
KTOL 262328Z 2700/2724 20005KT P6SM SCT060 BKN200
     FM270900 20004KT 4SM BR BKN200
     FM271400 21006KT P6SM SCT045 BKN250=

USA.gov is the U.S. government's official web portal to all federal, state and local government web resources and services.